Time;durP1;ratioP1;P1;durP2;ratioP2;P2;SDS_P1;SDS_P2;PMS_P1;PMS_P2;Temp;Humidity;BMP_temperature;BMP_pressure;BME280_temperature;BME280_humidity;BME280_pressure;Samples;Min_cycle;Max_cycle;Signal;HPM_P1;HPM_P2
2020/12/01 00:01:29;;;;;;;40.15;26.85;;;2.60;82.50;;;;;;5153277;27;20031;-58
2020/12/01 00:03:55;;;;;;;42.95;26.55;;;2.60;82.50;;;;;;5152764;27;20035;-59
2020/12/01 00:06:20;;;;;;;48.38;28.77;;;2.50;83.20;;;;;;5152992;27;20023;-59
2020/12/01 00:08:54;;;;;;;50.05;30.70;;;2.50;83.70;;;;;;5153094;27;20031;-60
2020/12/01 00:11:20;;;;;;;44.28;29.17;;;2.40;84.00;;;;;;5153273;27;20031;-61
2020/12/01 00:13:46;;;;;;;47.75;30.55;;;2.50;84.10;;;;;;5134216;27;20031;-59
2020/12/01 00:16:13;;;;;;;49.60;30.10;;;2.60;84.10;;;;;;5152829;27;20046;-61
2020/12/01 00:18:39;;;;;;;48.80;32.45;;;2.50;84.50;;;;;;5149103;27;20561;-61
2020/12/01 00:21:10;;;;;;;53.83;33.97;;;2.50;84.70;;;;;;5153139;27;20545;-59
2020/12/01 00:23:36;;;;;;;48.67;31.50;;;2.50;87.10;;;;;;5152940;27;20038;-59
2020/12/01 00:26:02;;;;;;;50.20;31.08;;;2.50;84.90;;;;;;5152845;27;20046;-62
2020/12/01 00:28:27;;;;;;;50.42;32.35;;;2.50;85.10;;;;;;5152736;27;20045;-62
2020/12/01 00:30:53;;;;;;;45.38;31.13;;;2.50;85.20;;;;;;5152681;27;20052;-61
2020/12/01 00:33:18;;;;;;;45.35;29.92;;;2.50;85.00;;;;;;5155248;27;20135;-60
2020/12/01 00:35:44;;;;;;;45.63;30.25;;;2.70;84.70;;;;;;5156662;27;20043;-61
2020/12/01 00:38:09;;;;;;;46.40;30.70;;;2.70;84.70;;;;;;5138251;27;20022;-60
2020/12/01 00:40:35;;;;;;;47.22;30.13;;;2.80;84.30;;;;;;5156492;27;20029;-59
2020/12/01 00:43:01;;;;;;;47.47;30.08;;;2.90;83.80;;;;;;5156492;27;20151;-59
2020/12/01 00:45:26;;;;;;;44.60;29.23;;;2.90;84.20;;;;;;5155814;27;20035;-60
2020/12/01 00:47:52;;;;;;;43.15;29.55;;;2.90;84.50;;;;;;5148630;27;20556;-60
2020/12/01 00:50:21;;;;;;;43.20;30.33;;;2.90;85.30;;;;;;5156454;27;20037;-60
2020/12/01 00:52:46;;;;;;;46.45;30.23;;;3.00;84.00;;;;;;5156618;27;20030;-61
2020/12/01 00:55:13;;;;;;;43.58;29.08;;;3.00;83.70;;;;;;5156065;27;20026;-58
2020/12/01 00:57:40;;;;;;;44.13;29.88;;;3.00;83.40;;;;;;5156354;27;20026;-59
2020/12/01 01:00:14;;;;;;;44.05;28.75;;;2.90;83.30;;;;;;5155657;27;20026;-59
2020/12/01 01:02:39;;;;;;;51.88;33.75;;;2.90;83.70;;;;;;5157186;27;20038;-61
2020/12/01 01:05:05;;;;;;;46.75;30.75;;;3.10;87.40;;;;;;5156421;27;20121;-60
2020/12/01 01:07:31;;;;;;;51.40;32.08;;;3.50;86.50;;;;;;5156316;27;20126;-60
2020/12/01 01:09:56;;;;;;;38.33;26.20;;;4.10;90.10;;;;;;5156063;27;20138;-60
2020/12/01 01:12:22;;;;;;;43.85;28.20;;;4.10;79.00;;;;;;5156188;27;20080;-60
2020/12/01 01:14:47;;;;;;;44.38;29.95;;;3.80;79.50;;;;;;5155590;27;20087;-60
2020/12/01 01:17:13;;;;;;;41.75;29.40;;;3.70;80.90;;;;;;5155861;27;20027;-59
2020/12/01 01:19:39;;;;;;;47.40;30.75;;;3.60;80.50;;;;;;5156122;27;20423;-60
2020/12/01 01:22:04;;;;;;;46.78;30.23;;;3.50;80.50;;;;;;5156902;27;20047;-58
2020/12/01 01:24:30;;;;;;;45.90;31.23;;;3.30;80.70;;;;;;5143770;27;20027;-62
2020/12/01 01:26:56;;;;;;;43.20;30.40;;;3.10;81.70;;;;;;5151992;27;20034;-60
2020/12/01 01:29:22;;;;;;;47.45;30.48;;;3.20;81.80;;;;;;5155518;27;20092;-58
2020/12/01 01:31:55;;;;;;;44.92;30.45;;;3.20;81.60;;;;;;5137222;27;20030;-62
2020/12/01 01:34:21;;;;;;;43.33;29.42;;;3.20;81.60;;;;;;5154999;27;20385;-62
2020/12/01 01:36:46;;;;;;;44.22;30.30;;;3.20;82.10;;;;;;5136923;27;20515;-60
2020/12/01 01:39:12;;;;;;;48.63;30.70;;;3.20;82.30;;;;;;5155599;27;20034;-59
2020/12/01 01:41:39;;;;;;;45.53;29.73;;;3.10;82.20;;;;;;5155315;27;20038;-63
2020/12/01 01:44:25;;;;;;;45.20;29.92;;;3.00;82.40;;;;;;5136116;27;20030;-63
2020/12/01 01:46:53;;;;;;;44.60;29.30;;;2.90;82.90;;;;;;5155817;27;20030;-61
2020/12/01 01:49:26;;;;;;;44.40;29.60;;;2.80;83.20;;;;;;5134463;27;20024;-61
2020/12/01 01:51:57;;;;;;;47.70;30.50;;;2.80;82.80;;;;;;5134288;27;20035;-61
2020/12/01 01:54:24;;;;;;;46.30;30.05;;;2.80;83.20;;;;;;5115586;27;20044;-61
2020/12/01 01:56:57;;;;;;;49.95;31.10;;;2.70;83.30;;;;;;5134471;27;20098;-58
2020/12/01 01:59:25;;;;;;;47.28;30.20;;;2.70;85.20;;;;;;5147508;27;20477;-59
2020/12/01 02:01:52;;;;;;;42.38;28.63;;;2.80;82.80;;;;;;5155110;27;20039;-60
2020/12/01 02:04:18;;;;;;;41.53;28.02;;;2.90;82.40;;;;;;5136862;27;20031;-61
2020/12/01 02:06:50;;;;;;;44.83;29.20;;;2.80;82.50;;;;;;5155077;27;20030;-60
2020/12/01 02:09:42;;;;;;;43.38;28.40;;;2.80;82.60;;;;;;5155469;27;20087;-59
2020/12/01 02:12:10;;;;;;;46.67;28.73;;;2.80;82.60;;;;;;5142955;27;20035;-60
2020/12/01 02:14:41;;;;;;;46.45;28.80;;;2.80;82.60;;;;;;5147764;27;20027;-60
2020/12/01 02:17:27;;;;;;;44.05;29.35;;;2.70;82.70;;;;;;5154216;27;20046;-61
2020/12/01 02:19:56;;;;;;;40.35;28.20;;;2.70;82.70;;;;;;5150983;27;20018;-60
2020/12/01 02:22:26;;;;;;;43.08;26.65;;;2.80;82.80;;;;;;5153971;27;20038;-60
2020/12/01 02:24:52;;;;;;;43.05;28.88;;;2.80;82.60;;;;;;5151185;27;20031;-60
2020/12/01 02:27:21;;;;;;;40.80;28.02;;;2.70;82.70;;;;;;5154090;27;20121;-61
2020/12/01 02:29:49;;;;;;;43.03;27.75;;;2.70;82.80;;;;;;5153676;27;20033;-60
2020/12/01 02:32:15;;;;;;;38.97;26.90;;;2.70;82.90;;;;;;5154099;27;20497;-60
2020/12/01 02:34:44;;;;;;;42.50;27.25;;;2.70;83.00;;;;;;5150549;27;20019;-60
2020/12/01 02:37:17;;;;;;;38.92;26.27;;;2.70;82.80;;;;;;5153296;27;20095;-61
2020/12/01 02:39:43;;;;;;;41.90;25.58;;;2.80;82.40;;;;;;5153192;27;20099;-60
2020/12/01 02:42:22;;;;;;;40.75;25.98;;;2.80;82.40;;;;;;5139899;22;20038;-78
2020/12/01 02:44:49;;;;;;;42.70;27.95;;;2.80;82.40;;;;;;5112837;28;20043;-78
2020/12/01 02:47:19;;;;;;;38.17;25.48;;;2.80;82.60;;;;;;5085232;27;20088;-77
2020/12/01 02:49:44;;;;;;;39.35;25.83;;;2.70;82.80;;;;;;5107077;27;20481;-77
2020/12/01 02:52:10;;;;;;;37.50;25.70;;;2.80;82.60;;;;;;5084054;27;20079;-77
2020/12/01 02:54:36;;;;;;;37.65;24.98;;;2.90;81.60;;;;;;5112042;28;20123;-78
2020/12/01 02:57:02;;;;;;;37.40;24.50;;;3.00;81.60;;;;;;5108020;28;20027;-78
2020/12/01 02:59:27;;;;;;;37.20;24.05;;;3.00;81.50;;;;;;5098795;28;20569;-77
2020/12/01 03:01:53;;;;;;;35.45;24.63;;;3.00;81.50;;;;;;5108560;28;20066;-77
2020/12/01 03:04:18;;;;;;;35.47;24.90;;;3.00;81.20;;;;;;5103747;27;20029;-77
2020/12/01 03:06:44;;;;;;;35.05;24.35;;;3.00;81.20;;;;;;5094356;27;20035;-78
2020/12/01 03:09:14;;;;;;;39.10;25.00;;;3.00;81.20;;;;;;5084697;27;20113;-77
2020/12/01 03:11:40;;;;;;;35.10;24.20;;;3.10;81.20;;;;;;5117125;22;20027;-59
2020/12/01 03:14:05;;;;;;;34.95;23.67;;;3.20;80.70;;;;;;5072601;28;20051;-52
2020/12/01 03:16:31;;;;;;;37.13;24.13;;;3.20;80.80;;;;;;5073148;28;20032;-58
2020/12/01 03:18:57;;;;;;;38.25;25.25;;;3.20;80.10;;;;;;5072623;28;20028;-53
2020/12/01 03:21:22;;;;;;;32.33;22.98;;;3.10;80.90;;;;;;5070398;28;20503;-59
2020/12/01 03:23:48;;;;;;;34.75;22.90;;;3.10;80.90;;;;;;5053508;28;20029;-52
2020/12/01 03:26:17;;;;;;;34.58;24.33;;;3.10;81.00;;;;;;5071832;28;20407;-53
2020/12/01 03:28:44;;;;;;;35.20;24.08;;;3.10;80.80;;;;;;5053854;28;20483;-55
2020/12/01 03:31:13;;;;;;;34.55;23.40;;;3.00;81.00;;;;;;5071438;28;20033;-54
2020/12/01 03:33:39;;;;;;;35.67;24.02;;;3.00;81.70;;;;;;5071659;28;20082;-53
2020/12/01 03:36:05;;;;;;;35.30;23.38;;;3.00;81.10;;;;;;5071519;28;20442;-56
2020/12/01 03:38:30;;;;;;;33.03;22.77;;;3.00;81.60;;;;;;5071747;28;20037;-54
2020/12/01 03:40:56;;;;;;;33.40;22.35;;;3.10;81.20;;;;;;5071751;28;20036;-53
2020/12/01 03:43:22;;;;;;;32.28;21.70;;;3.10;81.60;;;;;;5071442;28;20051;-53
2020/12/01 03:45:48;;;;;;;31.58;22.95;;;3.20;80.80;;;;;;5071497;28;20041;-56
2020/12/01 03:48:13;;;;;;;32.10;22.13;;;3.10;80.90;;;;;;5082591;28;20043;-56
2020/12/01 03:50:39;;;;;;;31.70;22.33;;;3.10;80.90;;;;;;5091525;28;20032;-56
2020/12/01 03:53:05;;;;;;;31.65;21.63;;;3.20;80.60;;;;;;5073425;28;20110;-53
2020/12/01 03:55:31;;;;;;;31.30;21.50;;;3.30;80.40;;;;;;5091439;28;20035;-57
2020/12/01 03:57:57;;;;;;;30.42;21.45;;;3.20;80.50;;;;;;5087393;28;20384;-57
2020/12/01 04:00:25;;;;;;;30.42;21.50;;;3.20;80.60;;;;;;5071508;28;20040;-56
2020/12/01 04:02:51;;;;;;;31.20;21.75;;;3.20;80.80;;;;;;5071379;28;20028;-57
2020/12/01 04:05:20;;;;;;;31.00;21.40;;;3.10;80.80;;;;;;5071029;28;20391;-54
2020/12/01 04:07:46;;;;;;;31.98;21.80;;;3.20;80.40;;;;;;5074853;28;20069;-59
2020/12/01 04:10:17;;;;;;;27.15;20.52;;;3.20;79.60;;;;;;5075349;28;20025;-57
2020/12/01 04:12:43;;;;;;;34.83;21.92;;;3.20;80.00;;;;;;5057385;28;20123;-58
2020/12/01 04:15:10;;;;;;;31.15;21.02;;;3.20;80.20;;;;;;5075498;28;20155;-55
2020/12/01 04:17:35;;;;;;;30.42;21.67;;;3.10;80.50;;;;;;5075752;28;20111;-56
2020/12/01 04:20:02;;;;;;;31.33;20.55;;;3.10;80.40;;;;;;5074606;28;20717;-52
2020/12/01 04:22:28;;;;;;;31.75;21.52;;;3.10;80.30;;;;;;5075325;28;20032;-54
2020/12/01 04:24:53;;;;;;;32.28;21.40;;;3.20;80.10;;;;;;5075253;28;20090;-58
2020/12/01 04:27:19;;;;;;;30.05;20.17;;;3.30;79.80;;;;;;5075108;28;20514;-57
2020/12/01 04:29:45;;;;;;;28.85;20.27;;;3.20;80.00;;;;;;5075083;28;20114;-57
2020/12/01 04:32:11;;;;;;;29.63;21.85;;;3.30;79.60;;;;;;5074910;28;20027;-56
2020/12/01 04:34:36;;;;;;;30.75;21.13;;;3.30;79.50;;;;;;5056817;28;20032;-56
2020/12/01 04:37:04;;;;;;;31.27;21.33;;;3.20;79.80;;;;;;5074845;28;20081;-59
2020/12/01 04:39:30;;;;;;;32.95;21.83;;;3.30;79.90;;;;;;5074984;28;20041;-55
2020/12/01 04:41:56;;;;;;;31.58;22.05;;;3.20;80.10;;;;;;5075271;28;20039;-57
2020/12/01 04:44:36;;;;;;;32.15;22.33;;;3.20;80.20;;;;;;5076874;28;20064;-56
2020/12/01 04:47:16;;;;;;;30.73;22.33;;;3.20;80.60;;;;;;5077560;28;20032;-57
2020/12/01 04:49:49;;;;;;;33.67;22.67;;;3.10;80.20;;;;;;5098637;28;20028;-55
2020/12/01 04:52:34;;;;;;;32.70;21.88;;;3.00;80.30;;;;;;5099068;28;20020;-59
2020/12/01 04:55:21;;;;;;;33.13;21.60;;;3.00;81.10;;;;;;5097191;28;20028;-54
2020/12/01 04:58:08;;;;;;;30.65;21.58;;;3.00;81.00;;;;;;5095199;28;20103;-59
2020/12/01 05:01:01;;;;;;;28.80;20.85;;;3.00;80.80;;;;;;5095479;28;20038;-57
2020/12/01 05:03:59;;;;;;;34.40;21.52;;;3.00;81.30;;;;;;5104023;28;20047;-52
2020/12/01 05:06:56;;;;;;;34.45;22.38;;;3.00;81.10;;;;;;5083789;28;20044;-53
2020/12/01 05:09:51;;;;;;;33.20;22.45;;;3.00;81.20;;;;;;5102203;28;20036;-53
2020/12/01 05:12:19;;;;;;;32.25;22.27;;;3.10;80.90;;;;;;5102465;28;20040;-56
2020/12/01 05:14:54;;;;;;;32.33;22.52;;;3.10;80.40;;;;;;5098892;28;20028;-56
2020/12/01 05:17:54;;;;;;;31.75;23.05;;;3.00;80.90;;;;;;5094944;28;20490;-54
2020/12/01 05:20:20;;;;;;;36.03;24.10;;;3.00;81.00;;;;;;5094968;28;20028;-55
2020/12/01 05:22:55;;;;;;;32.03;23.08;;;3.00;81.20;;;;;;5094651;28;20524;-56
2020/12/01 05:25:27;;;;;;;34.60;23.58;;;3.00;81.80;;;;;;5094258;28;20390;-54
2020/12/01 05:28:08;;;;;;;34.95;23.50;;;2.80;83.00;;;;;;5094816;28;20093;-56
2020/12/01 05:30:34;;;;;;;31.70;21.98;;;2.80;82.40;;;;;;5094276;28;20054;-57
2020/12/01 05:33:18;;;;;;;34.63;23.70;;;2.70;82.60;;;;;;5076163;28;20051;-56
2020/12/01 05:36:15;;;;;;;32.00;22.58;;;2.80;83.00;;;;;;5093906;28;20049;-55
2020/12/01 05:38:41;;;;;;;33.92;23.63;;;2.70;83.20;;;;;;5093787;28;20032;-57
2020/12/01 05:41:23;;;;;;;37.05;24.05;;;2.70;83.90;;;;;;5093909;28;20506;-55
2020/12/01 05:43:58;;;;;;;37.00;24.60;;;2.60;84.50;;;;;;5093824;28;20044;-55
2020/12/01 05:46:42;;;;;;;35.13;23.63;;;2.70;84.50;;;;;;5075603;28;20514;-56
2020/12/01 05:49:30;;;;;;;34.72;23.73;;;2.70;84.30;;;;;;5056972;28;20445;-58
2020/12/01 05:52:08;;;;;;;35.75;24.13;;;2.70;84.50;;;;;;5055917;28;20090;-59
2020/12/01 05:54:40;;;;;;;31.52;23.05;;;2.70;84.50;;;;;;5073473;28;20094;-54
2020/12/01 05:57:34;;;;;;;34.85;24.55;;;2.70;84.80;;;;;;5073837;28;20715;-55
2020/12/01 06:00:15;;;;;;;35.55;24.05;;;2.70;84.70;;;;;;5051422;28;20136;-60
2020/12/01 06:02:55;;;;;;;33.05;23.05;;;2.60;84.60;;;;;;5035870;28;20040;-53
2020/12/01 06:05:23;;;;;;;34.70;22.80;;;2.60;85.30;;;;;;5053785;28;20033;-59
2020/12/01 06:07:51;;;;;;;34.38;22.92;;;2.70;84.60;;;;;;5054602;28;20041;-57
2020/12/01 06:10:35;;;;;;;34.38;23.48;;;2.70;84.70;;;;;;5053984;28;20403;-56
2020/12/01 06:13:15;;;;;;;35.10;24.65;;;2.60;85.10;;;;;;5053586;28;20037;-54
2020/12/01 06:16:00;;;;;;;37.03;24.50;;;2.70;85.20;;;;;;5051496;28;20040;-58
2020/12/01 06:18:38;;;;;;;36.78;24.48;;;2.60;85.10;;;;;;5035243;28;20032;-54
2020/12/01 06:21:07;;;;;;;35.28;24.85;;;2.70;85.40;;;;;;5053004;28;20064;-57
2020/12/01 06:23:59;;;;;;;31.25;22.70;;;2.70;85.10;;;;;;5052887;28;20400;-59
2020/12/01 06:26:49;;;;;;;31.33;22.10;;;2.70;84.90;;;;;;5052732;28;20038;-59
2020/12/01 06:29:54;;;;;;;27.67;20.35;;;2.70;84.90;;;;;;5052202;28;20040;-56
2020/12/01 06:32:36;;;;;;;32.00;22.03;;;2.70;84.60;;;;;;5053346;28;20024;-56
2020/12/01 06:35:23;;;;;;;29.52;21.20;;;2.80;84.40;;;;;;5052675;28;20037;-55
2020/12/01 06:38:21;;;;;;;31.38;21.00;;;2.70;84.80;;;;;;5053043;28;20033;-56
2020/12/01 06:41:11;;;;;;;28.27;20.00;;;2.60;85.50;;;;;;5052673;28;20486;-55
2020/12/01 06:43:40;;;;;;;28.98;20.77;;;2.70;85.40;;;;;;5052029;28;20041;-58
2020/12/01 06:46:25;;;;;;;30.50;20.90;;;2.70;85.10;;;;;;5034988;28;20518;-57
2020/12/01 06:48:50;;;;;;;29.88;20.60;;;2.80;85.20;;;;;;5085293;28;20078;-57
2020/12/01 06:51:17;;;;;;;27.30;19.50;;;2.70;85.40;;;;;;5092743;28;20055;-56
2020/12/01 06:53:43;;;;;;;28.17;19.88;;;2.70;85.40;;;;;;5092770;28;20119;-56
2020/12/01 06:56:12;;;;;;;26.40;19.55;;;2.80;85.40;;;;;;5092063;28;20531;-54
2020/12/01 06:59:02;;;;;;;27.40;19.65;;;2.90;85.10;;;;;;5082826;28;20020;-57
2020/12/01 07:01:30;;;;;;;27.45;20.30;;;2.90;84.90;;;;;;5072011;28;20029;-56
2020/12/01 07:04:16;;;;;;;28.17;19.48;;;2.80;85.00;;;;;;5072254;28;20119;-54
2020/12/01 07:07:02;;;;;;;30.85;21.23;;;2.80;85.10;;;;;;5072098;28;20074;-57
2020/12/01 07:09:54;;;;;;;26.15;19.75;;;2.80;85.40;;;;;;5072221;28;20105;-59
2020/12/01 07:12:49;;;;;;;30.23;20.90;;;2.80;85.60;;;;;;5070114;28;20535;-57
2020/12/01 07:15:46;;;;;;;30.60;20.95;;;2.70;85.60;;;;;;5071873;28;20021;-57
2020/12/01 07:18:27;;;;;;;28.25;20.75;;;2.70;85.80;;;;;;5069300;28;20039;-59
2020/12/01 07:21:15;;;;;;;27.83;21.60;;;2.70;85.80;;;;;;5071527;28;20060;-56
2020/12/01 07:24:13;;;;;;;26.73;20.08;;;2.70;86.20;;;;;;5073569;28;20382;-56
2020/12/01 07:26:45;;;;;;;29.52;20.30;;;2.70;86.30;;;;;;5078856;28;20049;-54
2020/12/01 07:29:48;;;;;;;29.13;21.50;;;2.60;86.40;;;;;;5078542;28;20064;-57
2020/12/01 07:32:47;;;;;;;30.35;20.70;;;2.70;86.20;;;;;;5054240;28;20488;-57
2020/12/01 07:35:16;;;;;;;30.30;21.40;;;2.70;86.50;;;;;;5074549;28;20029;-54
2020/12/01 07:38:10;;;;;;;31.50;21.90;;;2.70;86.70;;;;;;5080612;28;20644;-54
2020/12/01 07:40:52;;;;;;;29.85;22.73;;;2.70;86.60;;;;;;5079760;28;20038;-56
2020/12/01 07:43:20;;;;;;;28.13;20.88;;;2.80;85.90;;;;;;5081123;28;20025;-55
2020/12/01 07:45:47;;;;;;;30.65;21.63;;;2.80;86.00;;;;;;5060920;28;20029;-57
2020/12/01 07:48:16;;;;;;;32.38;22.33;;;2.80;86.00;;;;;;5086321;28;20466;-59
2020/12/01 07:50:43;;;;;;;32.22;23.98;;;2.80;85.80;;;;;;5092627;28;20036;-56
2020/12/01 07:53:16;;;;;;;29.55;21.95;;;2.70;86.20;;;;;;5092384;28;20030;-56
2020/12/01 07:55:57;;;;;;;32.30;22.33;;;2.80;86.50;;;;;;5092071;28;20020;-56
2020/12/01 07:58:25;;;;;;;32.72;22.73;;;2.80;86.00;;;;;;5063187;28;20412;-56
2020/12/01 08:01:00;;;;;;;33.03;21.77;;;2.80;86.00;;;;;;5051969;28;20033;-58
2020/12/01 08:03:34;;;;;;;31.42;22.73;;;2.80;86.00;;;;;;5052214;28;20369;-60
2020/12/01 08:06:15;;;;;;;33.03;21.67;;;2.70;86.10;;;;;;5051460;28;20044;-59
2020/12/01 08:08:44;;;;;;;32.10;21.67;;;2.70;86.40;;;;;;5034249;28;20502;-59
2020/12/01 08:11:12;;;;;;;30.45;21.77;;;2.70;86.00;;;;;;5051862;28;20037;-58
2020/12/01 08:13:39;;;;;;;29.42;21.02;;;2.80;85.60;;;;;;5051205;28;20049;-57
2020/12/01 08:16:23;;;;;;;29.98;21.30;;;2.80;85.60;;;;;;5051992;28;20051;-60
2020/12/01 08:18:50;;;;;;;30.63;21.95;;;2.90;85.20;;;;;;5067313;28;20503;-58
2020/12/01 08:21:25;;;;;;;29.20;20.27;;;2.80;85.50;;;;;;5066693;28;20049;-58
2020/12/01 08:23:53;;;;;;;26.98;20.08;;;2.70;85.70;;;;;;5071058;28;20495;-59
2020/12/01 08:26:26;;;;;;;30.52;21.23;;;2.70;85.70;;;;;;5057060;28;20403;-60
2020/12/01 08:28:57;;;;;;;32.35;22.38;;;2.70;85.90;;;;;;5051491;28;20113;-59
2020/12/01 08:31:38;;;;;;;32.58;21.67;;;2.70;86.00;;;;;;5052538;28;20041;-61
2020/12/01 08:34:16;;;;;;;29.90;21.20;;;2.70;85.60;;;;;;5051901;28;20112;-58
2020/12/01 08:37:03;;;;;;;30.95;20.38;;;2.70;85.50;;;;;;5068506;28;20491;-59
2020/12/01 08:39:50;;;;;;;29.38;21.33;;;2.70;85.40;;;;;;5072550;28;20075;-60
2020/12/01 08:42:31;;;;;;;37.20;24.52;;;2.80;85.10;;;;;;5052208;28;20033;-58
2020/12/01 08:45:09;;;;;;;45.53;26.63;;;2.80;85.00;;;;;;5127235;22;20103;-62
2020/12/01 08:47:35;;;;;;;40.75;24.70;;;2.80;85.10;;;;;;5119978;27;20027;-62
2020/12/01 08:50:12;;;;;;;34.10;24.05;;;2.80;84.70;;;;;;5135234;27;20035;-60
2020/12/01 08:52:42;;;;;;;35.33;24.52;;;2.80;84.80;;;;;;5132986;27;20126;-62
2020/12/01 08:55:29;;;;;;;31.27;22.25;;;3.00;84.40;;;;;;5136527;27;20497;-61
2020/12/01 08:58:23;;;;;;;29.10;20.27;;;2.90;84.20;;;;;;5153613;27;20092;-61
2020/12/01 09:01:06;;;;;;;28.73;20.95;;;3.00;84.00;;;;;;5127425;27;20034;-62
2020/12/01 09:03:34;;;;;;;26.02;19.10;;;3.00;83.80;;;;;;5156714;27;20105;-59
2020/12/01 09:06:00;;;;;;;28.70;20.13;;;3.00;83.60;;;;;;5153428;27;20019;-62
2020/12/01 09:22:28;;;;;;;27.70;19.50;;;3.10;83.00;;;;;;5123344;27;20032;-62
2020/12/01 09:25:22;;;;;;;26.50;19.55;;;3.10;83.20;;;;;;5129070;27;20034;-62
2020/12/01 09:27:49;;;;;;;28.17;19.20;;;3.10;83.30;;;;;;5133173;27;20070;-62
2020/12/01 09:30:31;;;;;;;28.08;20.13;;;3.10;83.00;;;;;;5120369;27;20063;-62
2020/12/01 09:32:57;;;;;;;28.52;20.75;;;3.10;83.00;;;;;;5134964;27;20065;-64
2020/12/01 09:35:23;;;;;;;28.58;19.90;;;3.10;82.70;;;;;;5115731;27;20041;-61
2020/12/01 09:37:49;;;;;;;28.70;20.50;;;3.10;82.70;;;;;;5123491;27;20044;-61
2020/12/01 09:40:16;;;;;;;28.45;19.65;;;3.20;82.90;;;;;;5134052;27;20390;-60
2020/12/01 09:42:51;;;;;;;28.45;20.50;;;3.20;82.70;;;;;;5154545;27;20047;-63
2020/12/01 09:45:20;;;;;;;28.00;19.70;;;3.30;82.30;;;;;;5120561;27;20039;-61
2020/12/01 09:50:28;;;;;;;30.17;20.95;;;3.30;82.10;;;;;;5127775;27;20031;-60
2020/12/01 09:53:02;;;;;;;33.05;20.38;;;3.30;82.70;;;;;;5128725;27;20035;-61
2020/12/01 10:07:37;;;;;;;30.05;20.55;;;3.50;82.30;;;;;;5133801;27;20062;-60
2020/12/01 10:08:50;;;;;;;33.25;20.70;;;3.40;82.00;;;;;;5120929;27;20039;-61
2020/12/01 10:35:51;;;;;;;29.57;21.53;;;3.60;82.00;;;;;;5154813;27;20026;-61
2020/12/01 10:38:16;;;;;;;29.73;22.00;;;3.50;82.30;;;;;;5149929;27;20100;-60
2020/12/01 10:40:42;;;;;;;32.22;22.10;;;3.50;82.60;;;;;;5133657;27;20077;-60
2020/12/01 10:43:08;;;;;;;31.88;22.30;;;3.60;82.30;;;;;;5130340;27;20187;-60
2020/12/01 10:45:34;;;;;;;31.40;20.75;;;3.60;82.30;;;;;;5133448;27;20031;-58
2020/12/01 10:47:59;;;;;;;31.20;21.63;;;3.60;82.30;;;;;;5134465;27;20027;-59
2020/12/01 10:50:30;;;;;;;27.88;20.05;;;3.70;82.10;;;;;;5135441;27;20167;-54
2020/12/01 10:52:56;;;;;;;30.10;22.05;;;3.70;82.10;;;;;;5151900;27;20103;-60
2020/12/01 10:55:27;;;;;;;28.27;20.17;;;3.70;82.00;;;;;;5132651;27;20027;-59
2020/12/01 10:57:53;;;;;;;32.15;21.25;;;3.70;82.00;;;;;;5135070;27;20027;-60
2020/12/01 11:00:21;;;;;;;30.15;21.02;;;3.80;82.20;;;;;;5137703;27;20039;-58
2020/12/01 11:02:47;;;;;;;30.92;21.20;;;3.80;82.00;;;;;;5132470;27;20500;-58
2020/12/01 11:05:18;;;;;;;27.33;20.90;;;3.80;81.90;;;;;;5133282;27;20039;-59
2020/12/01 11:07:43;;;;;;;31.88;21.58;;;3.70;82.20;;;;;;5133426;27;20031;-61
2020/12/01 11:10:09;;;;;;;30.48;20.85;;;3.70;82.20;;;;;;5153333;27;20039;-60
2020/12/01 11:12:35;;;;;;;26.70;21.45;;;3.70;82.20;;;;;;5143683;27;20057;-59
2020/12/01 11:15:01;;;;;;;29.08;20.88;;;3.70;82.50;;;;;;5137200;27;20031;-55
2020/12/01 11:17:27;;;;;;;28.45;20.50;;;3.70;82.10;;;;;;5136267;27;20026;-62
2020/12/01 11:19:52;;;;;;;28.92;21.40;;;3.80;81.70;;;;;;5116647;27;20114;-61
2020/12/01 11:22:18;;;;;;;29.50;21.48;;;3.80;81.80;;;;;;5133385;27;20038;-61
2020/12/01 11:24:43;;;;;;;29.88;21.83;;;3.80;81.70;;;;;;5114354;27;20035;-59
2020/12/01 11:27:09;;;;;;;28.90;21.02;;;3.80;81.60;;;;;;5133145;27;20035;-61
2020/12/01 11:29:36;;;;;;;27.63;19.55;;;3.80;81.70;;;;;;5133203;27;20050;-61
2020/12/01 11:32:02;;;;;;;30.80;21.98;;;3.70;82.10;;;;;;5133149;27;20634;-62
2020/12/01 11:34:28;;;;;;;28.55;21.27;;;3.80;82.30;;;;;;5132679;27;20076;-62
2020/12/01 11:36:54;;;;;;;24.92;18.80;;;3.90;81.50;;;;;;5114931;27;20077;-61
2020/12/01 11:39:21;;;;;;;27.30;19.73;;;4.00;80.50;;;;;;5133218;27;20023;-60
2020/12/01 11:41:46;;;;;;;29.90;21.40;;;4.00;80.70;;;;;;5133308;28;20160;-61
2020/12/01 11:44:13;;;;;;;27.70;20.27;;;4.00;80.40;;;;;;5116400;28;20122;-61
2020/12/01 11:46:40;;;;;;;30.02;22.17;;;4.00;81.30;;;;;;5112197;28;20024;-63
2020/12/01 11:49:06;;;;;;;26.52;20.58;;;4.00;80.60;;;;;;5112438;28;20027;-61
2020/12/01 11:51:32;;;;;;;30.00;21.25;;;4.00;80.70;;;;;;5113927;28;20547;-62
2020/12/01 11:53:58;;;;;;;29.55;20.83;;;4.00;81.00;;;;;;5132708;28;20031;-61
2020/12/01 11:56:24;;;;;;;32.60;23.20;;;4.00;81.00;;;;;;5132298;28;20073;-62
2020/12/01 11:58:50;;;;;;;33.33;23.45;;;4.00;82.10;;;;;;5139813;27;20035;-61
2020/12/01 12:01:15;;;;;;;33.58;25.80;;;4.00;82.10;;;;;;5131456;28;20039;-62
2020/12/01 12:03:42;;;;;;;30.90;23.70;;;4.00;82.20;;;;;;5132127;27;20403;-62
2020/12/01 12:06:08;;;;;;;36.28;26.45;;;4.10;82.10;;;;;;5132262;28;20558;-62
2020/12/01 12:08:34;;;;;;;33.63;24.02;;;4.20;81.80;;;;;;5129896;27;20100;-63
2020/12/01 12:11:00;;;;;;;30.80;21.85;;;4.20;81.00;;;;;;5141342;27;20043;-62
2020/12/01 12:13:27;;;;;;;31.83;22.90;;;4.10;80.80;;;;;;5119513;27;20027;-62
2020/12/01 12:15:52;;;;;;;30.05;21.65;;;4.00;81.00;;;;;;5152782;27;20094;-62
2020/12/01 12:18:18;;;;;;;28.70;19.83;;;4.00;81.20;;;;;;5146344;27;20047;-62
2020/12/01 12:20:44;;;;;;;27.27;19.80;;;4.00;80.50;;;;;;5091652;28;20031;-61
2020/12/01 12:23:10;;;;;;;27.25;20.70;;;4.00;80.20;;;;;;5131249;27;20062;-60
2020/12/01 12:25:35;;;;;;;28.42;21.05;;;4.00;80.20;;;;;;5132570;27;20034;-61
2020/12/01 12:28:01;;;;;;;30.10;20.15;;;4.10;80.20;;;;;;5150464;27;20042;-60
2020/12/01 12:30:27;;;;;;;28.63;20.42;;;4.10;79.90;;;;;;5101838;27;20035;-55
2020/12/01 12:32:52;;;;;;;26.58;19.52;;;4.00;79.80;;;;;;5117582;27;20046;-59
2020/12/01 12:35:18;;;;;;;28.33;20.48;;;4.00;80.30;;;;;;5136850;27;20064;-58
2020/12/01 12:37:44;;;;;;;34.92;22.17;;;4.00;80.50;;;;;;5136023;27;20036;-56
2020/12/01 12:40:09;;;;;;;28.90;20.33;;;4.10;81.00;;;;;;5153860;27;20457;-57
2020/12/01 12:42:35;;;;;;;32.70;21.52;;;4.20;81.80;;;;;;5127950;27;20047;-56
2020/12/01 12:45:00;;;;;;;30.38;20.85;;;4.30;82.40;;;;;;5137443;27;20047;-59
2020/12/01 12:47:26;;;;;;;41.72;21.90;;;4.40;81.20;;;;;;5147975;27;20366;-58
2020/12/01 12:49:52;;;;;;;28.55;20.92;;;4.40;81.20;;;;;;5148872;27;20042;-55
2020/12/01 12:52:17;;;;;;;29.52;21.77;;;4.40;81.20;;;;;;5135929;27;20031;-57
2020/12/01 12:54:43;;;;;;;27.85;20.52;;;4.50;81.30;;;;;;5146748;27;20114;-54
2020/12/01 12:57:08;;;;;;;31.48;22.17;;;4.60;81.30;;;;;;5155555;27;20477;-58
2020/12/01 12:59:36;;;;;;;26.73;19.92;;;4.50;80.60;;;;;;5153771;27;20075;-60
2020/12/01 13:02:02;;;;;;;28.95;20.88;;;4.40;80.10;;;;;;5137690;27;20053;-58
2020/12/01 13:04:27;;;;;;;27.65;20.55;;;4.30;80.50;;;;;;5150612;27;20039;-59
2020/12/01 13:06:53;;;;;;;28.88;20.83;;;4.30;82.20;;;;;;5114600;28;20028;-58
2020/12/01 13:09:19;;;;;;;29.00;21.08;;;4.20;81.30;;;;;;5123266;27;20043;-59
2020/12/01 13:11:44;;;;;;;30.50;21.73;;;4.20;80.80;;;;;;5135344;27;20116;-58
2020/12/01 13:14:10;;;;;;;30.13;22.15;;;4.20;81.30;;;;;;5139910;27;20431;-60
2020/12/01 13:16:35;;;;;;;27.77;20.85;;;4.20;81.50;;;;;;5145509;27;20405;-56
2020/12/01 13:19:01;;;;;;;31.13;21.67;;;4.20;81.40;;;;;;5119738;27;20035;-58
2020/12/01 13:21:26;;;;;;;34.15;22.45;;;4.10;81.60;;;;;;5137708;27;20031;-57
2020/12/01 13:23:52;;;;;;;31.38;22.48;;;4.10;81.60;;;;;;5154353;27;20035;-60
2020/12/01 13:26:19;;;;;;;30.70;22.80;;;4.10;81.70;;;;;;5134999;27;20071;-60
2020/12/01 13:28:45;;;;;;;30.38;22.30;;;4.10;81.80;;;;;;5135004;27;20031;-60
2020/12/01 13:31:11;;;;;;;34.92;23.35;;;4.10;81.60;;;;;;5154382;27;20553;-57
2020/12/01 13:33:37;;;;;;;32.47;23.60;;;4.10;81.80;;;;;;5155390;27;20113;-62
2020/12/01 13:36:03;;;;;;;32.20;24.05;;;4.10;81.90;;;;;;5137206;27;20096;-61
2020/12/01 13:38:28;;;;;;;33.05;23.95;;;4.10;82.00;;;;;;5115725;27;20075;-60
2020/12/01 13:40:54;;;;;;;34.20;24.20;;;4.00;82.40;;;;;;5128291;27;20038;-58
2020/12/01 13:43:19;;;;;;;35.42;23.80;;;4.10;82.50;;;;;;5118368;27;20566;-60
2020/12/01 13:45:45;;;;;;;32.28;23.10;;;4.00;82.90;;;;;;5143226;27;20080;-60
2020/12/01 13:48:11;;;;;;;33.55;24.33;;;4.00;82.90;;;;;;5143480;27;20075;-59